ASN weather

Alfonsina's Airstrip
Ensenada, Baja California, Mexico

Public forecast

Using degrees Celsius for public forecast. Weather courtesy of forecast.io.

Closest aviation weather report (METAR) to Alfonsina's Airstrip

Closest report is (Old) Puerto PeƱasco Airport, 103.4 nm (191.5 km) NNE. Retrieved UTC (0 seconds ago):

Closest aviation forecast (TAF) to Alfonsina's Airstrip

Forecast is more than 6 hours old.

Closest forecast is General Ignacio P. Garcia International Airport, 180.2 nm (333.7 km) ESE. Retrieved 2020/06/05 06:43 UTC (7 hours ago):

TAF MMHO 050439Z 0506/0606 24005KT P6SM SKC FM051600 24015KT P6SM SCT200 FM060100 27006KT P6SM SKC